Time;durP1;ratioP1;P1;durP2;ratioP2;P2;SDS_P1;SDS_P2;PMS_P1;PMS_P2;Temp;Humidity;BMP_temperature;BMP_pressure;BME280_temperature;BME280_humidity;BME280_pressure;Samples;Min_cycle;Max_cycle;Signal;HPM_P1;HPM_P2
2021/05/25 00:00:55;;;;;;;2.45;1.00;;;10.70;84.40;;;9.52;80.55;95926.72;4990508;28;20105;-72
2021/05/25 00:03:23;;;;;;;1.95;0.90;;;10.60;84.90;;;9.49;81.52;95929.69;5004161;28;20061;-72
2021/05/25 00:05:49;;;;;;;1.38;0.52;;;10.60;84.90;;;9.42;80.87;95929.63;4988153;28;20041;-72
2021/05/25 00:08:15;;;;;;;2.03;0.73;;;10.60;82.30;;;9.36;80.05;95937.44;5005412;28;20133;-72
2021/05/25 00:10:41;;;;;;;2.28;0.93;;;10.50;82.70;;;9.31;80.73;95942.44;4989508;28;20517;-72
2021/05/25 00:13:07;;;;;;;1.50;0.60;;;10.50;82.50;;;9.27;79.88;95941.16;5001239;28;20038;-71
2021/05/25 00:15:33;;;;;;;2.33;0.70;;;10.40;82.40;;;9.19;79.91;95924.53;5003054;28;20073;-69
2021/05/25 00:17:59;;;;;;;1.38;0.63;;;10.40;82.20;;;9.14;80.01;95924.28;5004130;28;20120;-69
2021/05/25 00:20:25;;;;;;;0.65;0.50;;;10.30;82.70;;;9.11;80.02;95919.38;4990883;28;20386;-70
2021/05/25 00:22:51;;;;;;;4.80;0.70;;;10.30;82.10;;;9.05;80.15;95917.50;5003224;28;20124;-72
2021/05/25 00:25:17;;;;;;;2.03;0.70;;;10.20;82.50;;;9.03;79.98;95922.09;5003683;28;20080;-71
2021/05/25 00:27:43;;;;;;;0.60;0.50;;;10.30;82.50;;;9.03;79.82;95924.72;4990879;28;20045;-71
2021/05/25 00:30:10;;;;;;;1.52;0.57;;;10.30;82.10;;;9.03;79.42;95929.16;4989708;28;20057;-71
2021/05/25 00:32:36;;;;;;;3.90;0.50;;;10.40;82.30;;;9.04;79.71;95930.78;4984497;28;20061;-71
2021/05/25 00:35:02;;;;;;;1.70;0.63;;;10.40;81.60;;;9.04;79.33;95930.78;5008731;28;20420;-71
2021/05/25 00:37:27;;;;;;;3.33;0.70;;;10.40;81.70;;;9.04;79.29;95934.22;4987209;28;20104;-71
2021/05/25 00:39:53;;;;;;;3.25;0.75;;;10.40;81.90;;;9.06;80.06;95950.63;4981458;28;20034;-71
2021/05/25 00:42:19;;;;;;;1.85;0.70;;;10.50;81.90;;;9.10;80.10;95956.31;4965692;28;20034;-71
2021/05/25 00:44:45;;;;;;;1.63;0.65;;;10.60;81.80;;;9.12;79.36;95954.31;5021987;28;20400;-71
2021/05/25 00:47:10;;;;;;;1.77;0.73;;;10.70;81.90;;;9.14;80.07;95953.13;4987784;28;20111;-71
2021/05/25 00:49:36;;;;;;;2.25;0.63;;;10.70;81.70;;;9.14;80.27;95944.44;5006996;28;20081;-71
2021/05/25 00:52:02;;;;;;;2.00;0.80;;;10.60;81.80;;;9.14;80.29;95932.13;5004835;28;20606;-71
2021/05/25 00:54:28;;;;;;;1.90;0.65;;;10.70;81.50;;;9.17;80.06;95931.75;4989282;28;20556;-71
2021/05/25 00:56:56;;;;;;;1.15;0.65;;;10.80;81.30;;;9.18;80.10;95933.38;4988606;28;20034;-71
2021/05/25 00:59:22;;;;;;;1.17;0.60;;;10.80;81.40;;;9.21;79.77;95935.66;5004672;28;20046;-72
2021/05/25 01:01:47;;;;;;;1.00;0.60;;;10.80;80.90;;;9.21;79.69;95943.53;4988216;28;20498;-72
2021/05/25 01:04:13;;;;;;;3.45;0.70;;;10.80;81.00;;;9.21;79.62;95964.50;5006699;28;20092;-72
2021/05/25 01:06:39;;;;;;;3.63;0.90;;;10.70;81.30;;;9.18;79.76;95962.25;5020477;28;20061;-72
2021/05/25 01:09:05;;;;;;;1.45;0.68;;;10.70;81.40;;;9.17;80.16;95965.06;4990065;28;20053;-71
2021/05/25 01:11:35;;;;;;;2.90;0.60;;;10.60;81.30;;;9.13;79.71;95967.25;4985041;28;20034;-71
2021/05/25 01:14:02;;;;;;;1.23;0.50;;;10.60;81.20;;;9.08;79.97;95959.13;4988838;28;20057;-72
2021/05/25 01:16:29;;;;;;;3.83;0.60;;;10.50;81.20;;;9.07;79.67;95952.25;4990649;28;20030;-72
2021/05/25 01:18:55;;;;;;;2.08;0.70;;;10.50;81.20;;;9.04;79.00;95936.84;4973709;28;20046;-72
2021/05/25 01:21:21;;;;;;;1.55;0.63;;;10.50;80.90;;;9.01;79.22;95939.84;4967595;28;20093;-72
2021/05/25 01:23:47;;;;;;;1.23;0.50;;;10.40;81.30;;;9.00;79.63;95943.47;4988467;28;20510;-71
2021/05/25 01:26:15;;;;;;;5.55;0.80;;;10.40;81.40;;;9.00;80.11;95942.66;4971555;28;20037;-72
2021/05/25 01:28:41;;;;;;;2.20;0.65;;;10.40;81.20;;;8.95;79.21;95932.72;5011263;28;20527;-72
2021/05/25 01:31:07;;;;;;;1.95;0.70;;;10.30;80.70;;;8.92;79.72;95933.06;4989196;28;20034;-71
2021/05/25 01:33:35;;;;;;;2.47;0.65;;;10.40;81.80;;;8.90;79.65;95924.56;5005876;28;20460;-72
2021/05/25 01:36:01;;;;;;;2.17;0.80;;;10.40;81.70;;;8.91;79.97;95926.19;4977273;28;20029;-71
2021/05/25 01:38:27;;;;;;;2.75;0.63;;;10.50;81.00;;;8.92;80.05;95930.44;5007289;28;20426;-71
2021/05/25 01:40:55;;;;;;;2.47;0.60;;;10.50;80.90;;;8.89;80.03;95938.69;5008113;28;20026;-71
2021/05/25 01:43:21;;;;;;;1.83;0.82;;;10.40;80.90;;;8.84;79.03;95935.81;5010164;28;20033;-71
2021/05/25 01:45:47;;;;;;;1.45;0.70;;;10.20;81.50;;;8.84;79.38;95943.66;4991679;28;20034;-72
2021/05/25 01:48:12;;;;;;;2.15;0.80;;;10.30;81.60;;;8.84;79.89;95941.88;5006388;28;20030;-73
2021/05/25 01:50:39;;;;;;;1.75;0.65;;;10.40;81.50;;;8.82;79.35;95938.59;5008612;28;20472;-71
2021/05/25 01:53:08;;;;;;;1.23;0.70;;;10.30;81.30;;;8.82;80.23;95958.75;5005083;28;20160;-71
2021/05/25 01:55:48;;;;;;;1.42;0.60;;;10.20;81.40;;;8.79;80.12;95959.13;4974592;28;20085;-71
2021/05/25 01:58:20;;;;;;;2.83;0.70;;;10.20;81.80;;;8.78;80.32;95963.53;4989758;28;20061;-71
2021/05/25 02:00:52;;;;;;;3.05;0.80;;;10.20;81.40;;;8.77;80.00;95969.78;5006632;28;20038;-72
2021/05/25 02:03:18;;;;;;;1.20;0.70;;;10.20;81.80;;;8.76;80.26;95960.28;5009986;28;20222;-72
2021/05/25 02:05:46;;;;;;;2.45;0.68;;;10.20;81.50;;;8.75;79.37;95957.84;5006627;28;20041;-72
2021/05/25 02:08:12;;;;;;;2.03;0.80;;;10.20;81.20;;;8.71;79.42;95956.59;4990886;28;20205;-71
2021/05/25 02:10:40;;;;;;;3.33;0.70;;;10.10;81.00;;;8.67;79.84;95965.81;5008381;28;20046;-72
2021/05/25 02:13:11;;;;;;;3.05;0.70;;;10.00;81.30;;;8.62;79.50;95974.22;4986931;28;20050;-72
2021/05/25 02:15:37;;;;;;;3.33;0.80;;;10.10;81.60;;;8.59;79.55;95983.25;5007877;28;20045;-72
2021/05/25 02:18:11;;;;;;;2.58;1.00;;;9.90;82.10;;;8.57;80.39;95987.84;5008147;28;20042;-71
2021/05/25 02:20:37;;;;;;;2.95;0.75;;;10.00;81.80;;;8.54;79.49;95993.47;4991415;28;20057;-72
2021/05/25 02:23:03;;;;;;;3.08;0.80;;;9.90;81.90;;;8.49;79.61;95995.81;5003457;28;20038;-71
2021/05/25 02:25:29;;;;;;;1.05;0.55;;;9.80;82.10;;;8.49;79.64;95995.00;4975461;28;20041;-71
2021/05/25 02:27:55;;;;;;;7.45;4.90;;;9.90;82.30;;;8.48;80.08;95994.19;4989555;28;20046;-71
2021/05/25 02:30:21;;;;;;;2.55;1.15;;;9.90;82.20;;;8.50;79.73;95996.63;5006805;28;20113;-70
2021/05/25 02:32:47;;;;;;;5.40;3.17;;;10.00;81.90;;;8.48;79.95;95983.69;4988542;28;20034;-69
2021/05/25 02:35:13;;;;;;;1.75;1.05;;;9.90;81.80;;;8.48;79.58;95983.69;4992572;28;20109;-71
2021/05/25 02:37:39;;;;;;;2.60;1.17;;;9.90;81.40;;;8.49;79.67;95987.94;4987817;28;20041;-72
2021/05/25 02:40:06;;;;;;;4.25;1.60;;;10.00;81.80;;;8.50;79.81;95986.94;4988429;28;20046;-70
2021/05/25 02:42:31;;;;;;;2.50;1.50;;;10.00;81.10;;;8.52;79.94;95989.38;5005722;28;20045;-71
2021/05/25 02:44:57;;;;;;;1.77;0.73;;;10.10;81.10;;;8.51;79.86;95988.56;4992762;28;20401;-71
2021/05/25 02:47:23;;;;;;;2.65;1.00;;;10.00;81.10;;;8.50;79.81;95992.19;5007813;28;20034;-71
2021/05/25 02:49:48;;;;;;;0.65;0.47;;;10.00;80.60;;;8.52;79.36;95995.44;4990639;28;20088;-71
2021/05/25 02:52:14;;;;;;;2.83;0.80;;;10.00;80.50;;;8.51;79.38;95993.81;5005093;28;20561;-72
2021/05/25 02:54:40;;;;;;;3.85;0.80;;;10.00;80.60;;;8.52;79.38;95999.88;5008919;28;20565;-72
2021/05/25 02:57:06;;;;;;;3.05;0.60;;;10.00;80.00;;;8.52;79.00;95990.19;4991087;28;20097;-72
2021/05/25 02:59:33;;;;;;;2.25;0.80;;;10.00;79.90;;;8.52;78.82;95989.38;5006988;28;20041;-72
2021/05/25 03:01:58;;;;;;;1.55;0.57;;;10.00;79.30;;;8.51;78.73;96009.53;5005769;28;20042;-72
2021/05/25 03:04:24;;;;;;;3.78;0.75;;;10.00;79.80;;;8.54;78.83;95997.88;4991298;28;20128;-73
2021/05/25 03:06:50;;;;;;;2.75;0.88;;;10.10;79.80;;;8.53;78.57;96007.56;5006754;28;20030;-70
2021/05/25 03:09:16;;;;;;;4.22;0.90;;;10.00;79.30;;;8.51;78.66;96014.78;5006097;28;20040;-71
2021/05/25 03:11:41;;;;;;;5.60;1.05;;;10.00;78.60;;;8.49;78.43;96008.91;4990831;28;20120;-70
2021/05/25 03:14:07;;;;;;;2.45;0.57;;;10.00;78.70;;;8.49;78.29;96010.72;5007490;28;20550;-70
2021/05/25 03:16:33;;;;;;;5.90;0.70;;;9.90;78.60;;;8.47;78.19;96013.53;5006715;28;20411;-71
2021/05/25 03:18:59;;;;;;;4.68;1.08;;;9.90;78.10;;;8.46;77.40;96011.91;4989426;28;20099;-73
2021/05/25 03:21:24;;;;;;;4.30;0.90;;;9.90;78.00;;;8.46;77.57;96011.91;4988972;28;20037;-72
2021/05/25 03:23:50;;;;;;;3.97;0.68;;;9.90;78.20;;;8.45;77.50;96019.94;4986013;28;20034;-67
2021/05/25 03:26:16;;;;;;;2.38;0.65;;;9.80;78.00;;;8.45;77.33;96028.63;5008695;28;20448;-66
2021/05/25 03:28:42;;;;;;;2.97;0.70;;;9.90;78.20;;;8.43;77.57;96022.72;5006527;28;20026;-72
2021/05/25 03:31:08;;;;;;;4.18;0.80;;;9.90;78.10;;;8.43;77.36;96020.13;4989572;28;20174;-68
2021/05/25 03:33:33;;;;;;;5.35;0.60;;;9.80;77.70;;;8.41;76.99;96029.97;5006547;28;20442;-69
2021/05/25 03:35:59;;;;;;;6.47;1.00;;;9.80;78.30;;;8.37;76.92;96039.16;5005144;28;20036;-67
2021/05/25 03:38:25;;;;;;;2.70;1.13;;;9.80;78.40;;;8.32;77.39;96025.72;5004195;28;20029;-68
2021/05/25 03:40:51;;;;;;;3.83;1.10;;;9.70;78.60;;;8.33;77.51;96029.16;5005137;28;20057;-71
2021/05/25 03:43:16;;;;;;;5.28;0.75;;;9.70;79.20;;;8.32;77.46;96020.50;4988066;28;20058;-71
2021/05/25 03:45:42;;;;;;;5.63;1.27;;;9.70;78.50;;;8.30;77.25;96006.75;5008176;28;20060;-71
2021/05/25 03:48:08;;;;;;;3.38;1.10;;;9.70;78.00;;;8.29;77.45;96019.03;5008905;28;20041;-71
2021/05/25 03:50:34;;;;;;;3.25;1.00;;;9.80;78.60;;;8.31;77.31;96018.88;4991219;28;20042;-72
2021/05/25 03:52:59;;;;;;;4.05;0.85;;;9.80;78.30;;;8.32;77.27;96015.25;5008795;28;20062;-71
2021/05/25 04:00:40;;;;;;;4.22;0.90;;;9.90;78.70;;;8.35;77.11;96020.16;4998412;28;20041;-71
2021/05/25 04:03:06;;;;;;;2.85;0.60;;;9.90;77.20;;;8.37;77.26;96025.22;5008921;28;20034;-70
2021/05/25 04:05:32;;;;;;;2.55;0.70;;;9.90;77.40;;;8.37;77.01;96033.91;4989044;28;20038;-72
2021/05/25 04:07:58;;;;;;;4.05;0.88;;;9.90;77.60;;;8.37;76.72;96039.16;4988312;28;20412;-72
2021/05/25 04:10:23;;;;;;;6.60;3.00;;;9.90;76.70;;;8.33;76.58;96032.59;4973821;28;20072;-71
2021/05/25 04:12:49;;;;;;;6.35;1.90;;;9.80;77.40;;;8.35;76.76;96035.06;4973929;28;20038;-71
2021/05/25 04:15:15;;;;;;;2.90;0.93;;;9.80;76.20;;;8.33;76.57;96027.34;5008557;28;20030;-70
2021/05/25 04:17:41;;;;;;;4.53;0.82;;;9.90;76.50;;;8.34;76.51;96031.63;4991043;28;20044;-72
2021/05/25 04:20:11;;;;;;;2.80;0.80;;;9.90;77.20;;;8.39;77.67;96046.88;4992044;28;20042;-72
2021/05/25 04:22:38;;;;;;;3.35;0.80;;;10.10;77.80;;;8.41;76.44;96050.94;5003015;28;20584;-71
2021/05/25 04:25:05;;;;;;;5.55;1.02;;;10.10;76.90;;;8.43;76.81;96056.00;5008640;28;20103;-71
2021/05/25 04:27:31;;;;;;;4.55;1.10;;;10.10;76.80;;;8.44;76.47;96066.31;5003378;28;20041;-72
2021/05/25 04:29:56;;;;;;;2.92;0.82;;;10.10;76.60;;;8.44;76.45;96068.13;5001663;28;20057;-71
2021/05/25 04:32:22;;;;;;;3.92;1.00;;;10.00;76.60;;;8.44;76.72;96070.72;5005049;28;20061;-72
2021/05/25 04:34:48;;;;;;;9.48;1.85;;;10.00;76.40;;;8.41;76.27;96071.91;5007682;28;20442;-72
2021/05/25 04:37:14;;;;;;;5.90;1.83;;;9.90;76.50;;;8.37;76.06;96070.59;5005183;28;20438;-73
2021/05/25 04:39:39;;;;;;;5.05;1.20;;;9.80;75.80;;;8.36;75.96;96071.59;5003897;28;20044;-72
2021/05/25 04:42:05;;;;;;;2.85;0.60;;;9.80;74.90;;;8.36;74.94;96073.41;4982829;28;20042;-71
2021/05/25 04:44:31;;;;;;;3.92;0.73;;;9.80;72.80;;;8.36;74.53;96068.97;4990511;28;20045;-76
2021/05/25 04:46:57;;;;;;;1.75;0.70;;;9.80;72.60;;;8.37;74.30;96075.84;5005525;28;20038;-72
2021/05/25 04:49:22;;;;;;;3.97;0.80;;;9.80;72.40;;;8.42;73.92;96075.34;4982551;28;20410;-69
2021/05/25 04:51:48;;;;;;;2.50;0.63;;;10.10;72.80;;;8.46;73.73;96080.03;4995195;28;20030;-70
2021/05/25 04:54:14;;;;;;;4.05;1.00;;;10.10;71.90;;;8.48;73.64;96067.56;5008359;28;20852;-70
2021/05/25 04:56:40;;;;;;;2.90;0.70;;;10.00;72.20;;;8.49;73.31;96071.00;5003884;28;20030;-68
2021/05/25 04:59:06;;;;;;;7.32;0.70;;;10.00;71.70;;;8.52;72.86;96071.47;5004264;28;20132;-68
2021/05/25 05:01:32;;;;;;;3.25;0.80;;;10.00;71.20;;;8.53;72.90;96077.53;5003093;28;20038;-67
2021/05/25 05:03:58;;;;;;;2.45;0.57;;;10.10;72.20;;;8.54;72.57;96087.84;4970229;28;20578;-67
2021/05/25 05:06:24;;;;;;;1.90;0.52;;;10.10;71.80;;;8.57;72.41;96084.84;5011709;28;20109;-71
2021/05/25 05:08:49;;;;;;;3.67;0.68;;;10.10;71.00;;;8.58;72.79;96086.47;5006659;28;20062;-70
2021/05/25 05:11:15;;;;;;;3.10;0.70;;;10.10;71.60;;;8.62;72.06;96091.41;4989523;28;20026;-71
2021/05/25 05:13:41;;;;;;;2.13;0.65;;;10.10;71.60;;;8.66;72.30;96100.53;4982014;28;20111;-70
2021/05/25 05:16:07;;;;;;;6.65;1.45;;;10.20;71.20;;;8.70;72.30;96107.06;5005119;28;20041;-70
2021/05/25 05:18:32;;;;;;;3.90;1.25;;;10.30;70.70;;;8.75;72.14;96095.03;4975139;28;20034;-73
2021/05/25 05:20:58;;;;;;;6.70;1.58;;;10.40;70.50;;;8.77;72.11;96100.09;4999270;28;20073;-71
2021/05/25 05:23:24;;;;;;;4.78;0.88;;;10.30;69.80;;;8.82;71.61;96103.00;4982488;28;20117;-66
2021/05/25 05:25:50;;;;;;;4.85;1.10;;;10.50;69.80;;;8.84;71.46;96101.03;5005113;28;20038;-66
2021/05/25 05:28:15;;;;;;;3.33;0.90;;;10.40;68.30;;;8.87;70.71;96098.06;5011556;28;20421;-68
2021/05/25 05:30:41;;;;;;;2.97;0.77;;;10.50;67.70;;;8.89;69.87;96090.81;4976037;28;20453;-68
2021/05/25 05:33:09;;;;;;;4.10;0.80;;;10.50;67.70;;;8.93;69.87;96092.09;4992861;28;20510;-69
2021/05/25 05:35:34;;;;;;;3.53;0.77;;;10.50;66.40;;;8.96;69.63;96093.53;4980568;28;20414;-68
2021/05/25 05:38:00;;;;;;;6.20;1.95;;;10.50;67.40;;;8.99;69.13;96091.38;5004348;28;20044;-66
2021/05/25 05:40:26;;;;;;;3.20;0.95;;;10.60;66.50;;;9.03;69.39;96104.94;5010204;28;20065;-67
2021/05/25 05:42:52;;;;;;;3.00;1.13;;;10.60;65.60;;;9.06;68.73;96091.50;4998185;28;20070;-67
2021/05/25 05:45:20;;;;;;;3.55;0.88;;;10.70;65.80;;;9.09;68.64;96089.31;4996226;28;20038;-67
2021/05/25 05:47:46;;;;;;;2.75;0.88;;;10.60;64.30;;;9.09;67.59;96089.31;5011505;28;20034;-67
2021/05/25 05:50:12;;;;;;;4.55;0.90;;;10.60;64.70;;;9.08;68.25;96087.69;5026465;28;20417;-66
2021/05/25 05:52:39;;;;;;;2.95;0.60;;;10.60;65.20;;;9.06;67.42;96089.69;5021159;28;20278;-67
2021/05/25 05:55:05;;;;;;;4.35;0.70;;;10.60;65.30;;;9.08;67.35;96111.31;5016587;28;20034;-67
2021/05/25 05:57:31;;;;;;;4.45;0.80;;;10.50;63.80;;;9.11;67.15;96105.69;5016942;28;20419;-67
2021/05/25 05:59:57;;;;;;;3.90;0.77;;;10.70;64.60;;;9.17;67.55;96115.47;5013841;28;20037;-68
2021/05/25 06:02:23;;;;;;;3.33;0.90;;;10.80;63.90;;;9.27;67.66;96114.38;5013490;28;20517;-67
2021/05/25 06:04:48;;;;;;;4.18;0.75;;;11.10;63.80;;;9.36;66.67;96123.81;4994390;28;20073;-68
2021/05/25 06:07:14;;;;;;;4.95;1.00;;;11.10;62.20;;;9.40;66.59;96119.81;5009638;28;20030;-68
2021/05/25 06:09:40;;;;;;;3.22;0.68;;;11.10;61.60;;;9.48;66.56;96119.72;5009520;28;20033;-67
2021/05/25 06:12:06;;;;;;;4.43;0.93;;;11.30;61.20;;;9.55;66.58;96120.66;4993101;28;20022;-69
2021/05/25 06:14:32;;;;;;;3.75;1.35;;;11.30;61.30;;;9.70;65.27;96121.44;4996497;28;20444;-71
2021/05/25 06:16:59;;;;;;;6.03;1.85;;;11.60;60.40;;;9.88;65.17;96128.94;5010736;28;20038;-67
2021/05/25 06:19:25;;;;;;;3.10;1.10;;;12.00;60.10;;;9.96;64.94;96120.16;4995400;28;20513;-66
2021/05/25 06:21:50;;;;;;;6.43;0.98;;;11.80;58.50;;;10.06;64.08;96131.16;4994066;28;20042;-68
2021/05/25 06:24:16;;;;;;;4.00;0.75;;;11.90;59.90;;;10.17;64.44;96122.78;5012202;28;20084;-69
2021/05/25 06:26:42;;;;;;;4.70;0.70;;;12.00;58.60;;;10.23;64.23;96137.06;5029549;28;20033;-65
2021/05/25 06:29:08;;;;;;;5.72;0.73;;;12.00;57.40;;;10.22;63.46;96136.25;5014351;28;20042;-67
2021/05/25 06:31:34;;;;;;;3.65;0.80;;;11.80;56.80;;;10.20;63.38;96137.41;4989342;28;20070;-68
2021/05/25 06:33:59;;;;;;;9.77;1.05;;;11.80;58.40;;;10.23;62.33;96147.56;5009365;28;20738;-68
2021/05/25 06:36:25;;;;;;;6.38;0.98;;;11.80;58.00;;;10.23;63.32;96137.88;5008782;28;20033;-69
2021/05/25 06:38:51;;;;;;;4.30;0.75;;;11.80;58.70;;;10.27;62.44;96143.56;4999668;28;20034;-68
2021/05/25 06:41:17;;;;;;;7.30;0.93;;;12.00;59.00;;;10.28;63.20;96140.75;5005809;28;20453;-70
2021/05/25 06:43:42;;;;;;;4.88;0.85;;;12.00;58.60;;;10.34;63.31;96150.53;5000543;28;20026;-68
2021/05/25 06:46:08;;;;;;;2.95;0.70;;;12.10;58.00;;;10.39;63.39;96156.03;4991053;28;20062;-68
2021/05/25 06:48:34;;;;;;;6.82;1.20;;;12.00;57.10;;;10.41;62.53;96146.16;5014159;28;20705;-68
2021/05/25 06:51:04;;;;;;;5.38;1.15;;;12.10;57.60;;;10.44;61.66;96150.22;5015771;28;20034;-69
2021/05/25 06:53:30;;;;;;;2.80;0.80;;;12.10;57.80;;;10.49;62.48;96147.03;5030052;28;20045;-68
2021/05/25 06:55:56;;;;;;;4.70;1.10;;;12.10;57.70;;;10.59;63.33;96139.63;5013395;28;20064;-69
2021/05/25 06:58:21;;;;;;;4.43;0.80;;;12.60;57.90;;;10.62;62.08;96147.16;5010816;28;20034;-68
2021/05/25 07:00:47;;;;;;;4.20;1.00;;;12.40;57.50;;;10.66;62.04;96138.72;4968081;28;20087;-69
2021/05/25 07:03:13;;;;;;;1.77;0.63;;;12.20;56.40;;;10.65;61.64;96142.34;5002508;28;20035;-67
2021/05/25 07:05:38;;;;;;;3.97;0.90;;;12.20;57.10;;;10.64;60.50;96153.88;4995634;28;20053;-67
2021/05/25 07:08:04;;;;;;;4.68;1.10;;;12.10;56.90;;;10.63;61.61;96160.13;4988593;28;20105;-66
2021/05/25 07:10:30;;;;;;;2.65;0.90;;;12.10;57.20;;;10.59;60.60;96152.78;4999631;28;20038;-69
2021/05/25 07:12:56;;;;;;;7.00;0.82;;;12.10;57.20;;;10.60;61.25;96154.41;5008947;28;20026;-69
2021/05/25 07:15:22;;;;;;;7.47;1.02;;;12.10;58.20;;;10.58;61.39;96156.41;4989211;28;20054;-68
2021/05/25 07:17:56;;;;;;;5.88;0.85;;;12.20;57.30;;;10.62;60.76;96157.66;5004644;28;20112;-68
2021/05/25 07:20:22;;;;;;;3.53;1.00;;;12.20;57.20;;;10.65;60.76;96155.50;4974600;28;20035;-67
2021/05/25 07:22:53;;;;;;;6.78;2.33;;;12.40;56.50;;;10.76;62.03;96148.91;5001795;28;20030;-68
2021/05/25 07:25:23;;;;;;;6.10;1.13;;;12.70;57.30;;;10.88;60.81;96147.41;5009378;28;20034;-68
2021/05/25 07:27:49;;;;;;;8.18;1.50;;;12.80;56.50;;;11.01;62.09;96147.50;4993534;28;20493;-67
2021/05/25 07:30:15;;;;;;;3.72;1.20;;;13.10;57.70;;;11.16;61.62;96154.53;4990119;28;20166;-68
2021/05/25 07:32:42;;;;;;;7.43;1.05;;;13.20;55.40;;;11.31;60.29;96152.59;5019505;28;20116;-67
2021/05/25 07:35:09;;;;;;;3.88;1.00;;;13.30;54.90;;;11.37;59.88;96146.56;5016912;28;20040;-70
2021/05/25 07:37:34;;;;;;;3.92;0.88;;;13.30;53.40;;;11.48;60.23;96153.94;5000692;28;20045;-67
2021/05/25 07:40:00;;;;;;;3.25;0.80;;;13.40;51.90;;;11.60;59.09;96155.03;4990028;28;20030;-67
2021/05/25 07:42:26;;;;;;;4.68;1.55;;;13.50;51.80;;;11.76;59.56;96142.53;5006895;28;20123;-67
2021/05/25 07:44:52;;;;;;;2.28;0.70;;;13.80;51.40;;;11.87;59.19;96147.28;4989007;28;20038;-67
2021/05/25 07:47:18;;;;;;;2.15;0.65;;;13.70;50.90;;;11.90;58.37;96144.25;5005957;28;20044;-68
2021/05/25 07:49:44;;;;;;;4.22;0.80;;;13.60;49.90;;;11.91;57.75;96137.97;5004195;28;20025;-68
2021/05/25 07:52:10;;;;;;;3.67;0.73;;;13.60;49.20;;;12.01;56.41;96146.34;5011465;28;20033;-68
2021/05/25 07:54:36;;;;;;;2.47;0.70;;;13.90;49.10;;;12.15;57.32;96134.84;4991255;28;20057;-67
2021/05/25 07:57:01;;;;;;;3.70;0.60;;;14.10;48.70;;;12.32;56.63;96142.41;5007506;28;20115;-68
2021/05/25 07:59:27;;;;;;;4.10;0.60;;;14.20;48.20;;;12.33;56.29;96136.91;5000682;28;20038;-68
2021/05/25 08:01:54;;;;;;;3.22;0.70;;;13.80;47.70;;;12.21;55.33;96149.84;5014263;28;20083;-68
2021/05/25 08:04:20;;;;;;;2.45;0.55;;;13.50;48.60;;;12.17;54.92;96156.53;5008254;28;20042;-67
2021/05/25 08:06:45;;;;;;;3.03;0.73;;;13.60;48.80;;;12.13;55.05;96144.75;4991111;28;20022;-67
2021/05/25 08:09:11;;;;;;;4.32;1.33;;;13.50;49.40;;;12.02;55.25;96147.97;5006437;28;20044;-68
2021/05/25 08:11:37;;;;;;;4.93;1.38;;;13.20;49.20;;;11.89;55.54;96163.72;5007141;28;20464;-68
2021/05/25 08:14:05;;;;;;;3.88;0.80;;;13.20;50.00;;;11.80;55.45;96163.06;4987972;28;20100;-72
2021/05/25 08:16:35;;;;;;;5.45;0.90;;;13.10;51.20;;;11.71;54.00;96152.84;4998159;28;20080;-67
2021/05/25 08:21:36;;;;;;;1.60;0.60;;;13.50;50.60;;;11.82;55.07;96150.53;5000708;28;20615;-67
2021/05/25 08:24:04;;;;;;;3.15;0.47;;;13.60;50.10;;;11.93;55.83;96167.59;4988492;28;20039;-68
2021/05/25 08:26:30;;;;;;;6.20;1.52;;;13.70;50.00;;;11.96;55.38;96162.72;4981858;28;20031;-70
2021/05/25 08:28:55;;;;;;;5.07;1.10;;;13.60;49.90;;;12.04;54.96;96158.31;5021861;28;20041;-67
2021/05/25 08:31:21;;;;;;;2.25;0.52;;;13.90;49.60;;;12.15;55.10;96169.09;5008737;28;20038;-68
2021/05/25 08:33:47;;;;;;;3.13;0.90;;;13.90;49.60;;;12.21;54.89;96165.69;5015505;28;20033;-68
2021/05/25 08:36:15;;;;;;;6.97;0.80;;;13.90;48.40;;;12.17;53.98;96159.16;5017960;28;20049;-68
2021/05/25 08:38:41;;;;;;;2.80;0.63;;;13.60;46.10;;;12.22;52.83;96167.34;5019803;28;20116;-68
2021/05/25 08:41:07;;;;;;;6.32;0.65;;;14.10;45.10;;;12.51;52.30;96166.19;4995507;28;20037;-68
2021/05/25 08:43:33;;;;;;;4.60;0.60;;;14.70;43.50;;;12.82;52.25;96160.34;5012993;28;20037;-69
2021/05/25 08:45:59;;;;;;;1.98;0.50;;;15.00;42.50;;;13.07;51.22;96151.84;5011557;28;20061;-68
2021/05/25 08:48:24;;;;;;;4.03;1.27;;;15.10;42.00;;;13.24;51.61;96147.81;4998966;28;20532;-67
2021/05/25 08:50:53;;;;;;;5.05;0.90;;;15.00;43.20;;;13.39;50.30;96140.50;5001514;28;20065;-69
2021/05/25 08:53:19;;;;;;;2.20;0.43;;;15.20;44.20;;;13.56;51.25;96145.34;4999367;28;20089;-69
2021/05/25 08:55:51;;;;;;;3.97;1.10;;;15.60;41.60;;;13.59;49.94;96137.03;4991251;28;20421;-69
2021/05/25 08:58:19;;;;;;;4.00;0.77;;;15.40;41.50;;;13.62;48.73;96126.84;4989388;28;20041;-70
2021/05/25 09:00:44;;;;;;;2.85;0.80;;;15.50;41.70;;;13.71;49.39;96145.91;5008611;28;20038;-69
2021/05/25 09:03:13;;;;;;;4.68;1.00;;;15.70;40.70;;;13.88;49.45;96141.00;5018187;28;20057;-70
2021/05/25 09:05:39;;;;;;;7.63;0.73;;;16.10;39.00;;;14.09;49.18;96149.47;5024607;28;20164;-68
2021/05/25 09:08:05;;;;;;;3.85;0.85;;;16.50;39.10;;;14.22;48.83;96122.13;4959182;28;20499;-68
2021/05/25 09:10:33;;;;;;;2.80;1.00;;;16.60;39.20;;;14.49;49.21;96149.31;5008727;28;20053;-68
2021/05/25 09:12:58;;;;;;;1.90;0.70;;;17.00;40.00;;;14.60;47.63;96148.63;5005150;28;20088;-68
2021/05/25 09:15:46;;;;;;;2.17;0.80;;;16.70;39.60;;;14.80;45.30;96155.66;5010299;28;20481;-69
2021/05/25 09:18:24;;;;;;;3.90;0.70;;;17.20;39.40;;;15.08;44.03;96134.88;4995703;28;20402;-72
2021/05/25 09:21:03;;;;;;;8.52;1.10;;;17.50;36.90;;;15.31;43.09;96131.63;5006885;28;20039;-72
2021/05/25 09:23:32;;;;;;;4.50;0.90;;;17.70;35.30;;;15.51;43.67;96153.44;5007542;28;20034;-72
2021/05/25 09:26:11;;;;;;;3.28;0.93;;;18.10;35.50;;;15.70;46.37;96156.97;5009773;28;20585;-69
2021/05/25 09:29:02;;;;;;;3.25;0.70;;;18.20;36.00;;;15.92;44.06;96158.16;5023873;28;20041;-68
2021/05/25 09:31:45;;;;;;;3.08;0.73;;;18.30;36.80;;;16.10;41.51;96161.88;4991214;28;20069;-66
2021/05/25 09:34:15;;;;;;;2.95;0.50;;;18.30;35.10;;;16.07;42.07;96157.81;5008017;28;20129;-69
2021/05/25 09:37:03;;;;;;;6.22;0.77;;;17.70;34.50;;;15.87;40.43;96167.84;4990978;28;20026;-70
2021/05/25 09:39:52;;;;;;;3.13;0.68;;;17.30;35.90;;;15.77;41.16;96156.91;4994754;28;20037;-69
2021/05/25 09:42:18;;;;;;;3.95;0.80;;;17.70;35.50;;;16.00;45.19;96158.91;5020382;28;20527;-68
2021/05/25 09:45:01;;;;;;;4.35;0.70;;;18.30;35.30;;;16.21;41.54;96158.44;5013243;28;20034;-73
2021/05/25 09:47:53;;;;;;;6.30;0.90;;;18.50;35.40;;;16.36;41.41;96150.13;5005829;28;20092;-68
2021/05/25 09:50:23;;;;;;;1.50;0.55;;;18.70;34.90;;;16.63;41.87;96153.22;5008031;28;20037;-68
2021/05/25 09:53:06;;;;;;;2.10;0.57;;;19.30;33.90;;;16.81;40.19;96159.34;5002958;28;20500;-67
2021/05/25 09:55:50;;;;;;;3.50;0.50;;;19.10;33.80;;;16.84;41.28;96174.00;4963092;28;20508;-69
2021/05/25 09:58:17;;;;;;;3.60;0.57;;;19.30;34.20;;;16.88;42.72;96151.25;4976138;28;20058;-69
2021/05/25 10:00:46;;;;;;;7.63;1.55;;;18.70;33.80;;;16.84;42.73;96153.56;4969803;28;20125;-71
2021/05/25 10:03:15;;;;;;;4.00;1.45;;;19.10;33.10;;;17.22;40.44;96148.91;4976850;28;20398;-76
2021/05/25 10:05:52;;;;;;;3.17;1.55;;;19.90;33.00;;;17.64;39.47;96134.47;5012955;28;20512;-70
2021/05/25 10:08:23;;;;;;;6.65;0.95;;;20.50;31.60;;;18.15;41.04;96142.78;5008923;28;20045;-69
2021/05/25 10:10:50;;;;;;;4.68;1.65;;;21.00;31.90;;;18.44;41.66;96151.59;4989725;28;20034;-69
2021/05/25 10:13:16;;;;;;;2.63;0.70;;;20.60;32.70;;;18.43;41.29;96150.78;4999614;28;20093;-69
2021/05/25 10:15:42;;;;;;;2.90;0.82;;;20.10;31.90;;;18.34;41.42;96158.34;4987507;28;20030;-69
2021/05/25 10:18:28;;;;;;;3.25;0.60;;;20.80;32.70;;;18.64;41.84;96171.47;5004405;28;20042;-68
2021/05/25 10:20:54;;;;;;;1.63;0.75;;;21.10;31.80;;;18.82;40.01;96143.81;5008906;28;20037;-69
2021/05/25 10:23:21;;;;;;;3.42;0.55;;;20.70;30.40;;;19.12;39.34;96154.19;4982760;28;20062;-71
2021/05/25 10:25:48;;;;;;;4.25;0.40;;;21.60;29.50;;;19.41;38.48;96156.78;4974702;28;20136;-69
2021/05/25 10:28:14;;;;;;;2.60;0.45;;;22.10;28.80;;;19.77;38.82;96160.84;4992855;28;20034;-67
2021/05/25 10:30:50;;;;;;;1.88;0.60;;;22.30;28.10;;;20.01;36.41;96143.56;5020233;28;20061;-68
2021/05/25 10:33:20;;;;;;;3.00;0.50;;;22.40;28.30;;;20.06;35.87;96154.31;4982949;28;20088;-68